createdAt,value
2022-09-10T00:02:10.757Z,0.50
2022-09-10T00:04:40.910Z,0.73
2022-09-10T00:07:12.987Z,0.22
2022-09-10T00:09:43.823Z,0.25
2022-09-10T00:12:12.043Z,0.40
2022-09-10T00:14:48.287Z,0.30
2022-09-10T00:17:32.553Z,0.40
2022-09-10T00:20:10.330Z,0.40
2022-09-10T00:22:39.816Z,0.20
2022-09-10T00:25:10.574Z,0.32
2022-09-10T00:27:41.171Z,0.30
2022-09-10T00:30:14.769Z,0.15
2022-09-10T00:32:44.144Z,0.20
2022-09-10T00:35:16.982Z,0.20
2022-09-10T00:37:44.852Z,0.20
2022-09-10T00:40:12.645Z,0.20
2022-09-10T00:42:43.289Z,0.15
2022-09-10T00:45:18.104Z,0.17
2022-09-10T00:47:50.364Z,0.10
2022-09-10T00:50:23.635Z,0.10
2022-09-10T00:52:54.166Z,0.10
2022-09-10T00:55:22.590Z,0.17
2022-09-10T00:57:54.751Z,0.25
2022-09-10T01:00:23.255Z,0.20
2022-09-10T01:03:00.471Z,0.20
2022-09-10T01:05:31.044Z,0.20
2022-09-10T01:08:13.518Z,0.25
2022-09-10T01:10:51.777Z,0.10
2022-09-10T01:13:34.590Z,0.20
2022-09-10T01:16:23.791Z,0.17
2022-09-10T01:19:03.872Z,0.30
2022-09-10T01:21:38.511Z,0.30
2022-09-10T01:24:38.893Z,0.10
2022-09-10T01:27:31.472Z,0.17
2022-09-10T01:30:10.017Z,0.17
2022-09-10T01:32:56.721Z,0.30
2022-09-10T01:35:32.715Z,0.45
2022-09-10T01:38:15.883Z,0.20
2022-09-10T01:40:46.411Z,0.20
2022-09-10T01:43:19.654Z,0.20
2022-09-10T01:46:30.011Z,0.30
2022-09-10T01:49:22.145Z,0.20
2022-09-10T01:52:17.489Z,0.22
2022-09-10T01:55:07.039Z,0.17
2022-09-10T01:57:48.792Z,0.20
2022-09-10T02:00:21.982Z,0.32
2022-09-10T02:03:17.536Z,0.10
2022-09-10T02:05:51.365Z,0.10
2022-09-10T02:08:24.914Z,0.13
2022-09-10T02:11:07.916Z,0.22
2022-09-10T02:13:43.408Z,0.25
2022-09-10T02:16:37.748Z,0.10
2022-09-10T02:19:08.142Z,0.10
2022-09-10T02:21:39.570Z,0.30
2022-09-10T02:24:10.751Z,0.20
2022-09-10T02:26:41.862Z,0.10
2022-09-10T02:29:11.274Z,0.13
2022-09-10T02:31:50.331Z,0.35
2022-09-10T02:34:20.384Z,0.30
2022-09-10T02:36:50.194Z,0.28
2022-09-10T02:39:23.558Z,0.20
2022-09-10T02:41:52.622Z,0.20
2022-09-10T02:44:28.271Z,0.10
2022-09-10T02:47:00.648Z,0.10
2022-09-10T02:49:35.177Z,0.20
2022-09-10T02:52:03.810Z,0.30
2022-09-10T02:54:31.862Z,0.10
2022-09-10T02:57:02.864Z,0.30
2022-09-10T02:59:35.023Z,0.10
2022-09-10T03:02:07.541Z,0.13
2022-09-10T03:04:37.490Z,0.10
2022-09-10T03:07:07.838Z,0.20
2022-09-10T03:09:35.686Z,0.10
2022-09-10T03:12:17.680Z,0.20
2022-09-10T03:14:48.641Z,0.17
2022-09-10T03:17:17.878Z,0.10
2022-09-10T03:19:48.775Z,0.10
2022-09-10T03:22:18.822Z,0.10
2022-09-10T03:24:50.245Z,0.10
2022-09-10T03:27:25.699Z,0.05
2022-09-10T03:30:00.946Z,0.17
2022-09-10T03:32:35.339Z,0.10
2022-09-10T03:35:03.149Z,0.03
2022-09-10T03:37:32.799Z,0.30
2022-09-10T03:40:01.152Z,0.35
2022-09-10T03:42:32.111Z,0.20
2022-09-10T03:45:01.170Z,0.10
2022-09-10T03:47:29.243Z,0.10
2022-09-10T03:50:00.636Z,0.10
2022-09-10T03:52:31.569Z,0.20
2022-09-10T03:55:01.595Z,0.10
2022-09-10T03:57:31.672Z,0.20
2022-09-10T03:59:59.991Z,0.10
2022-09-10T04:02:27.840Z,0.20
2022-09-10T04:04:58.213Z,0.40
2022-09-10T04:07:27.430Z,0.20
2022-09-10T04:09:55.785Z,0.22
2022-09-10T04:12:29.562Z,0.20
2022-09-10T04:14:57.469Z,0.10
2022-09-10T04:17:28.038Z,0.38
2022-09-10T04:20:03.413Z,0.10
2022-09-10T04:22:34.480Z,0.20
2022-09-10T04:25:05.614Z,0.20
2022-09-10T04:27:37.001Z,0.30
2022-09-10T04:30:05.532Z,0.20
2022-09-10T04:32:33.508Z,0.30
2022-09-10T04:35:09.976Z,0.20
2022-09-10T04:37:40.137Z,0.13
2022-09-10T04:40:11.124Z,0.20
2022-09-10T04:42:43.594Z,0.20
2022-09-10T04:45:12.005Z,0.17
2022-09-10T04:47:40.318Z,0.32
2022-09-10T04:50:11.362Z,0.20
2022-09-10T04:52:41.320Z,0.20
2022-09-10T04:55:13.495Z,0.13
2022-09-10T04:57:43.824Z,0.20
2022-09-10T05:00:20.205Z,0.30
2022-09-10T05:02:50.484Z,0.30
2022-09-10T05:05:26.567Z,0.20
2022-09-10T05:07:56.024Z,0.20
2022-09-10T05:10:28.728Z,0.20
2022-09-10T05:13:01.003Z,0.20
2022-09-10T05:15:29.467Z,0.30
2022-09-10T05:18:04.743Z,0.20
2022-09-10T05:20:43.922Z,0.30
2022-09-10T05:23:13.576Z,0.20
2022-09-10T05:25:46.066Z,0.20
2022-09-10T05:28:14.113Z,0.10
2022-09-10T05:30:42.279Z,0.20
2022-09-10T05:33:13.836Z,0.30
2022-09-10T05:35:51.505Z,0.10
2022-09-10T05:38:23.939Z,0.17
2022-09-10T05:40:52.360Z,0.22
2022-09-10T05:43:21.692Z,0.40
2022-09-10T05:45:52.955Z,0.13
2022-09-10T05:48:22.292Z,0.20
2022-09-10T05:50:50.934Z,0.13
2022-09-10T05:53:20.459Z,0.28
2022-09-10T05:55:48.617Z,0.20
2022-09-10T05:58:19.225Z,0.30
2022-09-10T06:00:51.448Z,0.30
2022-09-10T06:03:21.305Z,0.30
2022-09-10T06:05:51.495Z,0.40
2022-09-10T06:08:25.091Z,0.28
2022-09-10T06:11:02.140Z,0.47
2022-09-10T06:13:35.911Z,0.20
2022-09-10T06:16:07.547Z,0.10
2022-09-10T06:18:38.811Z,0.10
2022-09-10T06:21:24.982Z,0.10
2022-09-10T06:24:24.478Z,0.20
2022-09-10T06:26:59.525Z,0.10
2022-09-10T06:29:31.331Z,0.10
2022-09-10T06:32:06.887Z,0.20
2022-09-10T06:34:35.772Z,0.10
2022-09-10T06:37:07.013Z,0.25
2022-09-10T06:39:39.389Z,0.10
2022-09-10T06:42:08.053Z,0.30
2022-09-10T06:44:57.743Z,0.22
2022-09-10T06:50:56.142Z,0.20
2022-09-10T06:53:30.057Z,0.30
2022-09-10T06:56:01.092Z,0.22
2022-09-10T06:58:36.091Z,0.30
2022-09-10T07:01:14.690Z,0.28
2022-09-10T07:03:47.385Z,0.20
2022-09-10T07:06:19.594Z,0.30
2022-09-10T07:08:58.124Z,0.30
2022-09-10T07:11:32.469Z,0.40
2022-09-10T07:14:02.109Z,0.20
2022-09-10T07:16:33.076Z,0.20
2022-09-10T07:19:04.135Z,0.20
2022-09-10T07:21:40.212Z,0.10
2022-09-10T07:24:24.288Z,0.15
2022-09-10T07:27:21.814Z,0.17
2022-09-10T07:29:55.903Z,0.15
2022-09-10T07:32:25.563Z,0.35
2022-09-10T07:35:02.623Z,0.20
2022-09-10T07:37:35.603Z,0.20
2022-09-10T07:40:09.956Z,0.20
2022-09-10T07:45:15.739Z,0.25
2022-09-10T07:47:45.447Z,0.30
2022-09-10T07:50:14.826Z,0.30
2022-09-10T07:52:43.291Z,0.20
2022-09-10T07:55:15.049Z,0.20
2022-09-10T07:57:45.577Z,0.25
2022-09-10T08:00:16.812Z,0.30
2022-09-10T08:03:04.444Z,0.22
2022-09-10T08:05:32.397Z,0.10
2022-09-10T08:08:18.769Z,0.20
2022-09-10T08:10:59.222Z,0.20
2022-09-10T08:13:36.499Z,0.20
2022-09-10T08:16:09.259Z,0.20
2022-09-10T08:18:37.424Z,0.20
2022-09-10T08:21:06.199Z,0.25
2022-09-10T08:23:36.563Z,0.30
2022-09-10T08:26:09.147Z,0.20
2022-09-10T08:28:52.251Z,0.25
2022-09-10T08:31:23.201Z,0.45
2022-09-10T08:34:08.244Z,0.30
2022-09-10T08:36:45.587Z,0.43
2022-09-10T08:39:19.506Z,0.20
2022-09-10T08:41:55.025Z,0.32
2022-09-10T08:44:38.929Z,0.35
2022-09-10T08:47:23.139Z,0.22
2022-09-10T08:49:56.919Z,0.30
2022-09-10T08:52:31.081Z,0.15
2022-09-10T08:55:08.247Z,0.32
2022-09-10T08:57:45.358Z,0.30
2022-09-10T09:00:28.082Z,0.20
2022-09-10T09:03:02.997Z,0.20
2022-09-10T09:05:41.965Z,0.30
2022-09-10T09:08:16.667Z,0.30
2022-09-10T09:10:49.914Z,0.20
2022-09-10T09:13:37.442Z,0.10
2022-09-10T09:16:21.677Z,0.20
2022-09-10T09:19:02.233Z,0.20
2022-09-10T09:21:56.497Z,0.15
2022-09-10T09:24:49.123Z,0.35
2022-09-10T09:27:20.113Z,0.20
2022-09-10T09:29:55.980Z,0.30
2022-09-10T09:32:27.435Z,0.20
2022-09-10T09:35:23.828Z,0.20
2022-09-10T09:38:14.425Z,0.20
2022-09-10T09:40:54.552Z,0.30
2022-09-10T09:43:35.674Z,0.25
2022-09-10T09:46:04.486Z,0.10
2022-09-10T09:48:42.061Z,0.10
2022-09-10T09:51:20.810Z,0.10
2022-09-10T09:54:01.011Z,0.28
2022-09-10T09:56:45.577Z,0.20
2022-09-10T09:59:26.665Z,0.10
2022-09-10T10:02:15.628Z,0.25
2022-09-10T10:04:55.697Z,0.20
2022-09-10T10:07:37.328Z,0.20
2022-09-10T10:10:08.886Z,0.22
2022-09-10T10:12:53.524Z,0.28
2022-09-10T10:15:43.190Z,0.15
2022-09-10T10:18:55.316Z,0.10
2022-09-10T10:21:32.708Z,0.10
2022-09-10T10:24:06.606Z,0.30
2022-09-10T10:29:35.571Z,0.20
2022-09-10T10:32:05.789Z,0.30
2022-09-10T10:34:54.909Z,0.10
2022-09-10T10:37:43.494Z,0.30
2022-09-10T10:40:27.354Z,0.30
2022-09-10T10:43:08.149Z,0.13
2022-09-10T10:45:57.441Z,0.10
2022-09-10T10:48:36.065Z,0.10
2022-09-10T10:51:25.305Z,0.10
2022-09-10T10:54:08.947Z,0.03
2022-09-10T10:56:41.640Z,0.05
2022-09-10T10:59:26.902Z,0.30
2022-09-10T11:02:14.892Z,0.10
2022-09-10T11:04:47.054Z,0.10
2022-09-10T11:07:21.958Z,0.20
2022-09-10T11:10:02.810Z,0.17
2022-09-10T11:13:09.005Z,0.20
2022-09-10T11:15:45.663Z,0.17
2022-09-10T11:18:19.471Z,0.10
2022-09-10T11:21:01.842Z,0.10
2022-09-10T11:23:33.774Z,0.10
2022-09-10T11:26:08.722Z,0.05
2022-09-10T11:28:43.555Z,0.30
2022-09-10T11:34:18.173Z,0.30
2022-09-10T11:42:20.337Z,0.15
2022-09-10T11:44:59.472Z,0.20
2022-09-10T11:47:32.235Z,0.10
2022-09-10T11:50:11.243Z,0.10
2022-09-10T11:52:40.462Z,0.10
2022-09-10T11:55:15.987Z,0.10
2022-09-10T11:57:56.317Z,0.00
2022-09-10T12:00:31.632Z,0.10
2022-09-10T12:03:38.179Z,0.10
2022-09-10T12:06:16.188Z,0.05
2022-09-10T12:08:56.938Z,0.20
2022-09-10T12:11:36.577Z,0.40
2022-09-10T12:14:16.311Z,0.10
2022-09-10T12:16:51.951Z,0.20
2022-09-10T12:19:30.277Z,0.20
2022-09-10T12:22:02.218Z,0.20
2022-09-10T12:24:39.857Z,0.10
2022-09-10T12:27:20.899Z,0.30
2022-09-10T12:29:54.397Z,0.10
2022-09-10T12:32:33.691Z,0.25
2022-09-10T12:35:47.298Z,0.30
2022-09-10T12:39:03.220Z,0.10
2022-09-10T12:42:00.523Z,0.20
2022-09-10T12:44:54.396Z,0.35
2022-09-10T12:47:44.118Z,0.30
2022-09-10T12:50:47.483Z,0.25
2022-09-10T12:54:01.206Z,0.28
2022-09-10T12:57:12.757Z,0.20
2022-09-10T13:00:12.103Z,0.30
2022-09-10T13:02:48.461Z,0.22
2022-09-10T13:05:28.863Z,0.20
2022-09-10T13:08:18.465Z,0.10
2022-09-10T13:10:50.820Z,0.30
2022-09-10T13:13:37.385Z,0.60
2022-09-10T13:16:07.536Z,0.20
2022-09-10T13:18:39.026Z,0.10
2022-09-10T13:21:43.991Z,0.08
2022-09-10T13:24:56.357Z,0.20
2022-09-10T13:27:39.083Z,0.20
2022-09-10T13:30:19.264Z,0.20
2022-09-10T13:32:53.285Z,0.10
2022-09-10T13:35:48.410Z,0.20
2022-09-10T13:38:39.768Z,0.10
2022-09-10T13:41:29.347Z,0.20
2022-09-10T13:44:17.048Z,0.10
2022-09-10T13:46:49.592Z,0.20
2022-09-10T13:49:28.635Z,0.20
2022-09-10T13:52:01.132Z,0.22
2022-09-10T13:54:52.211Z,0.40
2022-09-10T13:57:28.100Z,0.20
2022-09-10T14:00:07.820Z,0.30
2022-09-10T14:02:43.146Z,0.22
2022-09-10T14:05:33.854Z,0.20
2022-09-10T14:08:15.195Z,0.45
2022-09-10T14:10:53.070Z,0.30
2022-09-10T14:13:27.779Z,0.25
2022-09-10T14:15:59.212Z,0.17
2022-09-10T14:18:37.400Z,0.17
2022-09-10T14:21:06.602Z,0.30
2022-09-10T14:23:36.141Z,0.28
2022-09-10T14:26:17.204Z,0.20
2022-09-10T14:28:58.863Z,0.17
2022-09-10T14:31:33.407Z,0.35
2022-09-10T14:34:24.998Z,0.25
2022-09-10T14:36:59.812Z,0.10
2022-09-10T14:39:30.156Z,0.25
2022-09-10T14:42:30.653Z,0.38
2022-09-10T14:45:40.354Z,0.20
2022-09-10T14:48:35.586Z,0.28
2022-09-10T14:51:19.128Z,0.30
2022-09-10T14:53:54.257Z,0.38
2022-09-10T14:56:26.461Z,0.30
2022-09-10T14:58:59.047Z,0.20
2022-09-10T15:01:28.372Z,0.30
2022-09-10T15:03:59.768Z,0.20
2022-09-10T15:06:28.623Z,0.45
2022-09-10T15:08:57.048Z,0.43
2022-09-10T15:11:28.776Z,0.10
2022-09-10T15:13:59.150Z,0.30
2022-09-10T15:16:27.642Z,0.50
2022-09-10T15:18:55.562Z,0.50
2022-09-10T15:21:25.582Z,0.50
2022-09-10T15:23:53.365Z,0.50
2022-09-10T15:26:23.577Z,0.30
2022-09-10T15:28:53.029Z,0.30
2022-09-10T15:31:23.321Z,0.50
2022-09-10T15:34:00.074Z,0.38
2022-09-10T15:36:28.317Z,0.38
2022-09-10T15:38:59.677Z,0.32
2022-09-10T15:41:29.693Z,0.30
2022-09-10T15:44:08.537Z,0.40
2022-09-10T15:46:51.758Z,0.35
2022-09-10T15:49:27.077Z,0.32
2022-09-10T15:51:58.269Z,0.50
2022-09-10T15:54:28.913Z,0.50
2022-09-10T15:56:56.646Z,0.30
2022-09-10T15:59:25.762Z,0.20
2022-09-10T16:01:53.578Z,0.35
2022-09-10T16:04:21.541Z,0.40
2022-09-10T16:06:49.337Z,0.30
2022-09-10T16:09:31.368Z,0.10
2022-09-10T16:11:59.211Z,0.32
2022-09-10T16:14:28.348Z,0.40
2022-09-10T16:16:58.929Z,0.20
2022-09-10T16:19:53.916Z,0.20
2022-09-10T16:22:22.039Z,0.30
2022-09-10T16:24:49.882Z,0.20
2022-09-10T16:27:20.515Z,0.15
2022-09-10T16:29:52.556Z,0.28
2022-09-10T16:32:23.747Z,0.30
2022-09-10T16:34:53.302Z,0.30
2022-09-10T16:37:26.297Z,0.20
2022-09-10T16:39:56.812Z,0.30
2022-09-10T16:42:27.397Z,0.30
2022-09-10T16:45:02.353Z,0.35
2022-09-10T16:47:30.192Z,0.30
2022-09-10T16:49:58.164Z,0.30
2022-09-10T16:52:34.104Z,0.30
2022-09-10T16:55:34.334Z,0.40
2022-09-10T16:58:05.220Z,0.25
2022-09-10T17:00:37.905Z,0.40
2022-09-10T17:03:09.263Z,0.40
2022-09-10T17:06:02.415Z,0.30
2022-09-10T17:08:30.465Z,0.20
2022-09-10T17:10:59.280Z,0.30
2022-09-10T17:13:27.351Z,0.40
2022-09-10T17:16:15.328Z,0.30
2022-09-10T17:18:43.862Z,0.20
2022-09-10T17:21:14.776Z,0.20
2022-09-10T17:23:43.627Z,0.20
2022-09-10T17:26:11.620Z,0.22
2022-09-10T17:28:40.454Z,0.35
2022-09-10T17:31:08.542Z,0.30
2022-09-10T17:33:39.027Z,0.32
2022-09-10T17:36:21.169Z,0.50
2022-09-10T17:38:49.718Z,0.10
2022-09-10T17:41:20.799Z,0.22
2022-09-10T17:43:49.674Z,0.20
2022-09-10T17:46:20.398Z,0.35
2022-09-10T17:48:50.581Z,0.43
2022-09-10T17:51:20.818Z,0.40
2022-09-10T17:53:48.975Z,0.30
2022-09-10T17:56:19.713Z,0.32
2022-09-10T17:58:48.679Z,0.30
2022-09-10T18:01:23.298Z,0.30
2022-09-10T18:03:53.461Z,0.20
2022-09-10T18:06:22.493Z,0.35
2022-09-10T18:08:55.085Z,0.30
2022-09-10T18:11:24.685Z,0.30
2022-09-10T18:13:54.193Z,0.35
2022-09-10T18:16:24.471Z,0.40
2022-09-10T18:18:55.722Z,0.43
2022-09-10T18:21:27.049Z,0.40
2022-09-10T18:23:56.999Z,0.40
2022-09-10T18:26:27.011Z,0.43
2022-09-10T18:28:59.349Z,0.45
2022-09-10T18:31:29.161Z,0.52
2022-09-10T18:34:07.294Z,0.85
2022-09-10T18:36:35.503Z,0.47
2022-09-10T18:39:04.927Z,0.82
2022-09-10T18:41:36.648Z,0.60
2022-09-10T18:44:07.133Z,0.50
2022-09-10T18:46:36.688Z,0.75
2022-09-10T18:49:06.272Z,0.50
2022-09-10T18:51:34.451Z,0.65
2022-09-10T18:54:04.201Z,0.60
2022-09-10T18:56:33.341Z,0.50
2022-09-10T18:59:05.171Z,0.70
2022-09-10T19:01:43.327Z,0.60
2022-09-10T19:04:15.188Z,0.65
2022-09-10T19:06:46.854Z,0.60
2022-09-10T19:09:17.005Z,0.40
2022-09-10T19:11:46.287Z,0.60
2022-09-10T19:14:18.447Z,0.50
2022-09-10T19:16:48.000Z,0.57
2022-09-10T19:19:20.353Z,0.40
2022-09-10T19:21:53.631Z,0.50
2022-09-10T19:24:44.032Z,0.60
2022-09-10T19:27:14.904Z,0.60
2022-09-10T19:29:43.427Z,0.60
2022-09-10T19:32:15.267Z,0.60
2022-09-10T19:34:44.646Z,0.60
2022-09-10T19:37:12.909Z,0.73
2022-09-10T19:39:41.569Z,0.60
2022-09-10T19:42:18.895Z,0.60
2022-09-10T19:44:48.219Z,0.70
2022-09-10T19:47:19.776Z,0.52
2022-09-10T19:49:49.246Z,0.50
2022-09-10T19:52:17.663Z,0.52
2022-09-10T19:54:46.115Z,0.60
2022-09-10T19:57:14.378Z,0.68
2022-09-10T19:59:44.111Z,1.00
2022-09-10T20:02:12.030Z,0.80
2022-09-10T20:04:39.973Z,0.82
2022-09-10T20:07:09.587Z,1.08
2022-09-10T20:09:39.957Z,1.00
2022-09-10T20:12:12.088Z,0.65
2022-09-10T20:14:43.556Z,0.38
2022-09-10T20:17:13.257Z,0.60
2022-09-10T20:19:41.348Z,0.60
2022-09-10T20:22:10.794Z,0.50
2022-09-10T20:24:39.400Z,0.70
2022-09-10T20:27:07.603Z,0.70
2022-09-10T20:29:35.489Z,0.70
2022-09-10T20:32:06.836Z,0.52
2022-09-10T20:34:35.374Z,0.98
2022-09-10T20:37:03.486Z,1.08
2022-09-10T20:39:36.468Z,0.95
2022-09-10T20:42:04.987Z,0.63
2022-09-10T20:44:33.017Z,0.52
2022-09-10T20:47:02.510Z,1.02
2022-09-10T20:49:33.102Z,0.70
2022-09-10T20:52:03.768Z,0.63
2022-09-10T20:54:32.942Z,0.70
2022-09-10T20:57:04.115Z,0.70
2022-09-10T20:59:32.347Z,1.15
2022-09-10T21:02:05.418Z,1.08
2022-09-10T21:04:34.346Z,1.17
2022-09-10T21:07:02.446Z,0.70
2022-09-10T21:09:59.163Z,0.88
2022-09-10T21:12:27.684Z,0.50
2022-09-10T21:14:58.348Z,0.90
2022-09-10T21:17:26.376Z,0.50
2022-09-10T21:19:54.230Z,0.60
2022-09-10T21:22:25.901Z,1.10
2022-09-10T21:24:55.581Z,0.70
2022-09-10T21:27:24.105Z,0.63
2022-09-10T21:29:52.927Z,0.68
2022-09-10T21:32:20.790Z,0.65
2022-09-10T21:34:49.164Z,0.60
2022-09-10T21:37:20.362Z,0.50
2022-09-10T21:39:48.320Z,0.82
2022-09-10T21:42:18.287Z,0.80
2022-09-10T21:44:46.357Z,0.93
2022-09-10T21:47:14.307Z,0.73
2022-09-10T21:49:42.675Z,0.90
2022-09-10T21:52:10.825Z,1.35
2022-09-10T21:54:38.733Z,1.10
2022-09-10T21:57:16.509Z,1.20
2022-09-10T21:59:45.602Z,0.93
2022-09-10T22:02:16.524Z,1.02
2022-09-10T22:04:47.630Z,0.70
2022-09-10T22:07:20.682Z,0.85
2022-09-10T22:09:57.738Z,0.60
2022-09-10T22:12:29.051Z,0.70
2022-09-10T22:14:58.248Z,0.82
2022-09-10T22:17:26.688Z,1.42
2022-09-10T22:19:56.756Z,0.80
2022-09-10T22:22:38.636Z,0.80
2022-09-10T22:25:10.118Z,0.80
2022-09-10T22:27:38.569Z,0.75
2022-09-10T22:30:09.010Z,0.70
2022-09-10T22:32:36.798Z,0.75
2022-09-10T22:35:06.291Z,0.73
2022-09-10T22:37:37.012Z,0.80
2022-09-10T22:40:05.019Z,1.05
2022-09-10T22:42:33.654Z,0.60
2022-09-10T22:45:04.007Z,0.60
2022-09-10T22:47:33.227Z,0.70
2022-09-10T22:50:04.855Z,0.70
2022-09-10T22:52:34.128Z,0.80
2022-09-10T22:55:01.949Z,0.60
2022-09-10T22:57:30.392Z,1.20
2022-09-10T22:59:58.265Z,0.95
2022-09-10T23:02:26.077Z,0.60
2022-09-10T23:04:56.156Z,1.05
2022-09-10T23:07:26.093Z,1.00
2022-09-10T23:09:53.955Z,1.10
2022-09-10T23:12:22.690Z,1.02
2022-09-10T23:14:57.952Z,0.98
2022-09-10T23:17:26.089Z,0.70
2022-09-10T23:19:54.090Z,0.57
2022-09-10T23:22:25.251Z,0.73
2022-09-10T23:25:06.640Z,0.93
2022-09-10T23:27:35.921Z,0.95
2022-09-10T23:30:04.097Z,0.90
2022-09-10T23:32:31.883Z,1.15
2022-09-10T23:35:00.369Z,1.10
2022-09-10T23:37:29.858Z,1.02
2022-09-10T23:39:57.915Z,0.90
2022-09-10T23:42:27.821Z,0.98
2022-09-10T23:44:55.770Z,1.10
2022-09-10T23:47:23.721Z,1.00
2022-09-10T23:50:01.011Z,0.90
2022-09-10T23:52:30.191Z,0.95
2022-09-10T23:55:01.302Z,1.05
2022-09-10T23:57:29.186Z,0.80
2022-09-10T23:59:57.256Z,0.93
